sensor_id;sensor_type;location;lat;lon;timestamp;pressure;altitude;pressure_sealevel;temperature;humidity
25869;BME280;13688;53.154;18.136;2022-09-16T00:00:52;99486.45;;;9.27;92.17
25869;BME280;13688;53.154;18.136;2022-09-16T00:06:28;99480.80;;;9.11;94.09
25869;BME280;13688;53.154;18.136;2022-09-16T00:11:48;99486.16;;;9.11;96.37
25869;BME280;13688;53.154;18.136;2022-09-16T00:17:10;99492.36;;;9.11;98.21
25869;BME280;13688;53.154;18.136;2022-09-16T00:22:33;99483.34;;;9.22;99.61
25869;BME280;13688;53.154;18.136;2022-09-16T00:27:56;99498.02;;;9.08;99.35
25869;BME280;13688;53.154;18.136;2022-09-16T00:33:19;99497.42;;;8.95;100.00
25869;BME280;13688;53.154;18.136;2022-09-16T00:38:42;99502.08;;;8.93;100.00
25869;BME280;13688;53.154;18.136;2022-09-16T00:56:03;99496.58;;;9.04;100.00
25869;BME280;13688;53.154;18.136;2022-09-16T01:01:28;99505.06;;;9.00;100.00
25869;BME280;13688;53.154;18.136;2022-09-16T01:06:53;99500.67;;;8.89;100.00
25869;BME280;13688;53.154;18.136;2022-09-16T01:12:16;99509.23;;;8.73;100.00
25869;BME280;13688;53.154;18.136;2022-09-16T01:17:45;99510.36;;;8.71;100.00
25869;BME280;13688;53.154;18.136;2022-09-16T01:23:46;99509.93;;;8.75;100.00
25869;BME280;13688;53.154;18.136;2022-09-16T01:29:32;99504.69;;;8.64;100.00
25869;BME280;13688;53.154;18.136;2022-09-16T01:35:24;99509.91;;;8.66;100.00
25869;BME280;13688;53.154;18.136;2022-09-16T01:41:08;99505.61;;;8.44;100.00
25869;BME280;13688;53.154;18.136;2022-09-16T01:46:58;99498.48;;;8.64;100.00
25869;BME280;13688;53.154;18.136;2022-09-16T01:52:40;99501.47;;;8.70;100.00
25869;BME280;13688;53.154;18.136;2022-09-16T01:58:10;99491.85;;;8.68;100.00
25869;BME280;13688;53.154;18.136;2022-09-16T02:03:37;99508.92;;;8.67;100.00
25869;BME280;13688;53.154;18.136;2022-09-16T02:09:05;99503.16;;;8.71;100.00
25869;BME280;13688;53.154;18.136;2022-09-16T02:14:37;99505.53;;;8.65;100.00
25869;BME280;13688;53.154;18.136;2022-09-16T02:20:04;99495.60;;;8.46;100.00
25869;BME280;13688;53.154;18.136;2022-09-16T02:25:23;99499.02;;;8.57;100.00
25869;BME280;13688;53.154;18.136;2022-09-16T02:30:51;99499.86;;;8.58;100.00
25869;BME280;13688;53.154;18.136;2022-09-16T02:36:18;99511.88;;;8.64;100.00
25869;BME280;13688;53.154;18.136;2022-09-16T02:41:42;99511.74;;;8.65;100.00
25869;BME280;13688;53.154;18.136;2022-09-16T02:47:11;99509.20;;;8.64;100.00
25869;BME280;13688;53.154;18.136;2022-09-16T02:52:59;99507.23;;;8.66;100.00
25869;BME280;13688;53.154;18.136;2022-09-16T02:58:26;99523.02;;;8.59;100.00
25869;BME280;13688;53.154;18.136;2022-09-16T03:03:49;99514.98;;;8.59;100.00
25869;BME280;13688;53.154;18.136;2022-09-16T03:09:14;99517.91;;;8.56;100.00
25869;BME280;13688;53.154;18.136;2022-09-16T03:15:09;99519.05;;;8.53;100.00
25869;BME280;13688;53.154;18.136;2022-09-16T03:20:59;99518.05;;;8.54;100.00
25869;BME280;13688;53.154;18.136;2022-09-16T03:32:26;99516.33;;;8.44;100.00
25869;BME280;13688;53.154;18.136;2022-09-16T03:37:56;99521.22;;;8.39;100.00
25869;BME280;13688;53.154;18.136;2022-09-16T03:43:20;99513.72;;;8.32;100.00
25869;BME280;13688;53.154;18.136;2022-09-16T03:48:43;99511.17;;;8.31;100.00
25869;BME280;13688;53.154;18.136;2022-09-16T03:54:05;99524.81;;;8.28;100.00
25869;BME280;13688;53.154;18.136;2022-09-16T03:59:28;99512.69;;;8.24;100.00
25869;BME280;13688;53.154;18.136;2022-09-16T04:04:51;99518.70;;;8.16;100.00
25869;BME280;13688;53.154;18.136;2022-09-16T04:10:13;99513.87;;;8.10;100.00
25869;BME280;13688;53.154;18.136;2022-09-16T04:15:36;99527.09;;;8.02;100.00
25869;BME280;13688;53.154;18.136;2022-09-16T04:21:01;99533.16;;;8.04;100.00
25869;BME280;13688;53.154;18.136;2022-09-16T04:26:24;99521.27;;;7.97;100.00
25869;BME280;13688;53.154;18.136;2022-09-16T04:31:46;99516.44;;;7.91;100.00
25869;BME280;13688;53.154;18.136;2022-09-16T04:37:09;99515.34;;;7.93;100.00
25869;BME280;13688;53.154;18.136;2022-09-16T04:42:31;99527.75;;;7.94;100.00
25869;BME280;13688;53.154;18.136;2022-09-16T04:47:56;99530.42;;;7.94;100.00
25869;BME280;13688;53.154;18.136;2022-09-16T04:53:19;99524.09;;;7.95;100.00
25869;BME280;13688;53.154;18.136;2022-09-16T04:58:45;99520.16;;;7.99;100.00
25869;BME280;13688;53.154;18.136;2022-09-16T05:04:11;99526.95;;;8.03;100.00
25869;BME280;13688;53.154;18.136;2022-09-16T05:09:33;99534.44;;;8.10;100.00
25869;BME280;13688;53.154;18.136;2022-09-16T05:14:55;99532.37;;;8.13;100.00
25869;BME280;13688;53.154;18.136;2022-09-16T05:20:18;99535.23;;;8.21;100.00
25869;BME280;13688;53.154;18.136;2022-09-16T05:25:40;99537.36;;;8.27;100.00
25869;BME280;13688;53.154;18.136;2022-09-16T05:31:07;99533.66;;;8.40;100.00
25869;BME280;13688;53.154;18.136;2022-09-16T05:36:33;99541.73;;;8.49;100.00
25869;BME280;13688;53.154;18.136;2022-09-16T05:41:59;99543.58;;;8.58;100.00
25869;BME280;13688;53.154;18.136;2022-09-16T05:47:21;99531.66;;;8.72;100.00
25869;BME280;13688;53.154;18.136;2022-09-16T05:52:43;99542.27;;;8.83;98.38
25869;BME280;13688;53.154;18.136;2022-09-16T05:58:06;99556.25;;;8.97;96.41
25869;BME280;13688;53.154;18.136;2022-09-16T06:03:29;99546.00;;;9.11;94.09
25869;BME280;13688;53.154;18.136;2022-09-16T06:08:54;99538.52;;;9.25;92.41
25869;BME280;13688;53.154;18.136;2022-09-16T06:14:19;99536.98;;;9.41;90.65
25869;BME280;13688;53.154;18.136;2022-09-16T06:19:41;99545.48;;;9.56;88.96
25869;BME280;13688;53.154;18.136;2022-09-16T06:25:04;99540.22;;;9.74;87.38
25869;BME280;13688;53.154;18.136;2022-09-16T06:30:26;99546.85;;;9.89;86.26
25869;BME280;13688;53.154;18.136;2022-09-16T06:35:49;99544.13;;;10.09;84.88
25869;BME280;13688;53.154;18.136;2022-09-16T06:41:13;99537.73;;;10.19;83.39
25869;BME280;13688;53.154;18.136;2022-09-16T06:46:36;99526.58;;;10.34;82.16
25869;BME280;13688;53.154;18.136;2022-09-16T06:51:59;99527.34;;;10.53;80.90
25869;BME280;13688;53.154;18.136;2022-09-16T06:57:21;99539.28;;;10.69;78.63
25869;BME280;13688;53.154;18.136;2022-09-16T07:02:44;99517.13;;;10.84;77.19
25869;BME280;13688;53.154;18.136;2022-09-16T07:08:06;99541.75;;;11.07;75.28
25869;BME280;13688;53.154;18.136;2022-09-16T07:13:28;99525.64;;;11.25;74.01
25869;BME280;13688;53.154;18.136;2022-09-16T07:18:52;99534.03;;;11.22;72.97
25869;BME280;13688;53.154;18.136;2022-09-16T07:24:16;99545.38;;;11.16;72.25
25869;BME280;13688;53.154;18.136;2022-09-16T07:29:39;99567.86;;;10.97;71.85
25869;BME280;13688;53.154;18.136;2022-09-16T07:35:03;99545.29;;;11.08;71.94
25869;BME280;13688;53.154;18.136;2022-09-16T07:40:26;99539.09;;;11.25;70.19
25869;BME280;13688;53.154;18.136;2022-09-16T07:45:57;99549.56;;;11.46;68.87
25869;BME280;13688;53.154;18.136;2022-09-16T07:51:22;99562.26;;;11.54;67.97
25869;BME280;13688;53.154;18.136;2022-09-16T07:56:47;99548.19;;;11.78;67.55
25869;BME280;13688;53.154;18.136;2022-09-16T08:02:09;99572.80;;;12.00;66.12
25869;BME280;13688;53.154;18.136;2022-09-16T08:07:32;99560.50;;;11.98;64.18
25869;BME280;13688;53.154;18.136;2022-09-16T08:12:54;99560.08;;;12.11;63.73
25869;BME280;13688;53.154;18.136;2022-09-16T08:18:17;99559.75;;;12.14;62.75
25869;BME280;13688;53.154;18.136;2022-09-16T08:23:40;99552.79;;;12.55;62.67
25869;BME280;13688;53.154;18.136;2022-09-16T08:29:04;99556.10;;;12.83;61.50
25869;BME280;13688;53.154;18.136;2022-09-16T08:34:27;99540.27;;;13.22;60.19
25869;BME280;13688;53.154;18.136;2022-09-16T08:39:49;99542.97;;;13.30;59.49
25869;BME280;13688;53.154;18.136;2022-09-16T08:45:19;99552.25;;;13.28;58.58
25869;BME280;13688;53.154;18.136;2022-09-16T08:50:46;99549.46;;;13.11;57.02
25869;BME280;13688;53.154;18.136;2022-09-16T08:56:13;99552.10;;;13.37;56.28
25869;BME280;13688;53.154;18.136;2022-09-16T09:01:43;99537.78;;;13.69;55.96
25869;BME280;13688;53.154;18.136;2022-09-16T09:30:25;99533.39;;;13.44;54.59
25869;BME280;13688;53.154;18.136;2022-09-16T09:41:40;99545.19;;;13.35;55.41
25869;BME280;13688;53.154;18.136;2022-09-16T09:47:22;99507.58;;;13.41;54.40
25869;BME280;13688;53.154;18.136;2022-09-16T09:52:59;99553.77;;;13.30;54.26
25869;BME280;13688;53.154;18.136;2022-09-16T09:58:36;99532.16;;;13.30;52.70
25869;BME280;13688;53.154;18.136;2022-09-16T10:04:15;99534.05;;;13.38;52.90
25869;BME280;13688;53.154;18.136;2022-09-16T10:09:50;99547.75;;;13.69;52.62
25869;BME280;13688;53.154;18.136;2022-09-16T10:15:30;99555.81;;;14.58;49.04
25869;BME280;13688;53.154;18.136;2022-09-16T10:20:56;99536.60;;;14.13;48.15
25869;BME280;13688;53.154;18.136;2022-09-16T10:26:27;99550.78;;;14.07;48.14
25869;BME280;13688;53.154;18.136;2022-09-16T10:31:53;99557.38;;;14.20;46.92
25869;BME280;13688;53.154;18.136;2022-09-16T10:37:18;99553.31;;;14.08;48.16
25869;BME280;13688;53.154;18.136;2022-09-16T10:42:44;99555.03;;;14.01;47.84
25869;BME280;13688;53.154;18.136;2022-09-16T10:48:13;99547.62;;;15.14;46.00
25869;BME280;13688;53.154;18.136;2022-09-16T10:53:38;99539.89;;;16.25;41.86
25869;BME280;13688;53.154;18.136;2022-09-16T10:59:12;99544.13;;;15.36;44.08
25869;BME280;13688;53.154;18.136;2022-09-16T11:10:44;99542.00;;;15.78;41.31
25869;BME280;13688;53.154;18.136;2022-09-16T11:16:30;99558.81;;;14.72;43.22
25869;BME280;13688;53.154;18.136;2022-09-16T11:22:02;99558.15;;;15.40;43.43
25869;BME280;13688;53.154;18.136;2022-09-16T11:56:57;99516.64;;;16.75;37.62
25869;BME280;13688;53.154;18.136;2022-09-16T12:02:39;99536.39;;;16.84;40.11
25869;BME280;13688;53.154;18.136;2022-09-16T12:14:28;99542.13;;;17.25;39.13
25869;BME280;13688;53.154;18.136;2022-09-16T12:37:19;99516.02;;;18.38;36.26
25869;BME280;13688;53.154;18.136;2022-09-16T12:48:39;99497.70;;;17.54;36.77
25869;BME280;13688;53.154;18.136;2022-09-16T13:05:44;99490.98;;;16.34;39.85
25869;BME280;13688;53.154;18.136;2022-09-16T13:16:58;99470.94;;;16.94;38.84
25869;BME280;13688;53.154;18.136;2022-09-16T13:22:29;99471.23;;;17.63;39.08
25869;BME280;13688;53.154;18.136;2022-09-16T13:28:21;99459.41;;;17.49;36.80
25869;BME280;13688;53.154;18.136;2022-09-16T13:39:35;99442.78;;;18.08;35.46
25869;BME280;13688;53.154;18.136;2022-09-16T13:44:58;99457.98;;;17.32;37.62
25869;BME280;13688;53.154;18.136;2022-09-16T13:50:26;99448.17;;;18.71;35.70
25869;BME280;13688;53.154;18.136;2022-09-16T13:55:50;99486.72;;;18.40;34.42
25869;BME280;13688;53.154;18.136;2022-09-16T14:01:20;99451.22;;;18.20;35.39
25869;BME280;13688;53.154;18.136;2022-09-16T14:12:50;99450.53;;;18.11;35.15
25869;BME280;13688;53.154;18.136;2022-09-16T14:18:28;99466.63;;;18.41;34.20
25869;BME280;13688;53.154;18.136;2022-09-16T14:23:51;99464.96;;;16.83;35.01
25869;BME280;13688;53.154;18.136;2022-09-16T14:29:50;99440.00;;;17.09;36.78
25869;BME280;13688;53.154;18.136;2022-09-16T14:35:18;99452.95;;;17.71;34.50
25869;BME280;13688;53.154;18.136;2022-09-16T14:40:42;99468.72;;;17.83;34.54
25869;BME280;13688;53.154;18.136;2022-09-16T14:46:07;99503.17;;;18.25;34.50
25869;BME280;13688;53.154;18.136;2022-09-16T14:51:31;99482.83;;;17.29;37.76
25869;BME280;13688;53.154;18.136;2022-09-16T14:57:06;99428.38;;;17.65;37.94
25869;BME280;13688;53.154;18.136;2022-09-16T15:14:13;99477.21;;;15.68;39.72
25869;BME280;13688;53.154;18.136;2022-09-16T15:19:40;99467.80;;;15.79;39.94
25869;BME280;13688;53.154;18.136;2022-09-16T15:25:16;99476.92;;;16.59;38.79
25869;BME280;13688;53.154;18.136;2022-09-16T15:30:53;99471.90;;;15.29;42.05
25869;BME280;13688;53.154;18.136;2022-09-16T15:36:30;99461.12;;;15.21;42.57
25869;BME280;13688;53.154;18.136;2022-09-16T15:41:42;99453.18;;;15.19;43.40
25869;BME280;13688;53.154;18.136;2022-09-16T15:47:13;99454.36;;;15.85;42.00
25869;BME280;13688;53.154;18.136;2022-09-16T15:52:33;99475.34;;;16.21;40.27
25869;BME280;13688;53.154;18.136;2022-09-16T15:58:13;99489.87;;;16.43;40.62
25869;BME280;13688;53.154;18.136;2022-09-16T16:15:01;99466.95;;;15.09;46.13
25869;BME280;13688;53.154;18.136;2022-09-16T16:20:25;99490.53;;;14.62;47.87
25869;BME280;13688;53.154;18.136;2022-09-16T16:25:51;99462.69;;;15.38;46.51
25869;BME280;13688;53.154;18.136;2022-09-16T16:31:16;99470.95;;;15.67;46.01
25869;BME280;13688;53.154;18.136;2022-09-16T16:36:39;99463.56;;;14.76;47.16
25869;BME280;13688;53.154;18.136;2022-09-16T16:42:02;99471.16;;;14.33;48.81
25869;BME280;13688;53.154;18.136;2022-09-16T16:47:25;99458.76;;;14.00;49.97
25869;BME280;13688;53.154;18.136;2022-09-16T16:52:49;99471.09;;;13.78;50.87
25869;BME280;13688;53.154;18.136;2022-09-16T16:58:11;99460.49;;;13.52;51.78
25869;BME280;13688;53.154;18.136;2022-09-16T17:03:34;99466.14;;;13.08;53.35
25869;BME280;13688;53.154;18.136;2022-09-16T17:08:58;99468.63;;;12.85;54.52
25869;BME280;13688;53.154;18.136;2022-09-16T17:14:23;99463.61;;;12.48;56.15
25869;BME280;13688;53.154;18.136;2022-09-16T17:19:47;99467.72;;;12.26;57.06
25869;BME280;13688;53.154;18.136;2022-09-16T17:25:10;99472.50;;;12.07;57.85
25869;BME280;13688;53.154;18.136;2022-09-16T17:30:32;99464.80;;;11.68;59.56
25869;BME280;13688;53.154;18.136;2022-09-16T17:36:07;99475.03;;;11.46;60.70
25869;BME280;13688;53.154;18.136;2022-09-16T17:41:33;99473.33;;;11.63;60.62
25869;BME280;13688;53.154;18.136;2022-09-16T17:47:07;99463.30;;;11.91;60.32
25869;BME280;13688;53.154;18.136;2022-09-16T17:52:31;99463.46;;;11.90;59.83
25869;BME280;13688;53.154;18.136;2022-09-16T17:57:54;99468.80;;;12.08;59.15
25869;BME280;13688;53.154;18.136;2022-09-16T18:03:23;99470.53;;;12.17;58.93
25869;BME280;13688;53.154;18.136;2022-09-16T18:08:46;99468.63;;;12.43;57.79
25869;BME280;13688;53.154;18.136;2022-09-16T18:14:11;99469.71;;;12.58;56.90
25869;BME280;13688;53.154;18.136;2022-09-16T18:19:34;99465.59;;;12.88;54.96
25869;BME280;13688;53.154;18.136;2022-09-16T18:24:56;99466.66;;;13.04;54.09
25869;BME280;13688;53.154;18.136;2022-09-16T18:30:18;99474.23;;;13.08;53.67
25869;BME280;13688;53.154;18.136;2022-09-16T18:35:41;99468.52;;;13.03;53.80
25869;BME280;13688;53.154;18.136;2022-09-16T18:41:10;99468.96;;;12.90;54.07
25869;BME280;13688;53.154;18.136;2022-09-16T18:46:36;99472.64;;;12.81;54.33
25869;BME280;13688;53.154;18.136;2022-09-16T18:51:58;99454.97;;;12.87;54.09
25869;BME280;13688;53.154;18.136;2022-09-16T18:57:21;99461.55;;;12.84;54.27
25869;BME280;13688;53.154;18.136;2022-09-16T19:02:43;99452.92;;;12.81;54.38
25869;BME280;13688;53.154;18.136;2022-09-16T19:08:06;99450.73;;;12.76;54.64
25869;BME280;13688;53.154;18.136;2022-09-16T19:13:32;99459.97;;;12.74;54.69
25869;BME280;13688;53.154;18.136;2022-09-16T19:18:56;99456.73;;;12.62;55.03
25869;BME280;13688;53.154;18.136;2022-09-16T19:24:20;99462.09;;;12.54;55.28
25869;BME280;13688;53.154;18.136;2022-09-16T19:29:43;99453.30;;;12.44;55.63
25869;BME280;13688;53.154;18.136;2022-09-16T19:35:05;99455.31;;;12.42;55.71
25869;BME280;13688;53.154;18.136;2022-09-16T19:40:28;99461.49;;;12.26;56.23
25869;BME280;13688;53.154;18.136;2022-09-16T19:45:50;99452.65;;;12.16;56.46
25869;BME280;13688;53.154;18.136;2022-09-16T19:51:24;99439.34;;;12.14;55.87
25869;BME280;13688;53.154;18.136;2022-09-16T19:56:47;99443.33;;;12.02;56.08
25869;BME280;13688;53.154;18.136;2022-09-16T20:02:10;99446.30;;;11.91;56.48
25869;BME280;13688;53.154;18.136;2022-09-16T20:07:33;99435.00;;;11.87;56.59
25869;BME280;13688;53.154;18.136;2022-09-16T20:12:55;99435.92;;;11.78;57.00
25869;BME280;13688;53.154;18.136;2022-09-16T20:18:17;99445.46;;;11.72;57.25
25869;BME280;13688;53.154;18.136;2022-09-16T20:23:40;99443.19;;;11.60;57.61
25869;BME280;13688;53.154;18.136;2022-09-16T20:29:03;99456.10;;;11.56;58.06
25869;BME280;13688;53.154;18.136;2022-09-16T20:34:26;99459.12;;;11.53;58.22
25869;BME280;13688;53.154;18.136;2022-09-16T20:39:48;99466.26;;;11.62;58.04
25869;BME280;13688;53.154;18.136;2022-09-16T20:45:10;99462.13;;;11.50;58.32
25869;BME280;13688;53.154;18.136;2022-09-16T20:50:36;99469.73;;;11.37;58.96
25869;BME280;13688;53.154;18.136;2022-09-16T20:56:05;99469.61;;;11.21;59.79
25869;BME280;13688;53.154;18.136;2022-09-16T21:01:35;99465.44;;;11.08;60.53
25869;BME280;13688;53.154;18.136;2022-09-16T21:06:58;99472.36;;;10.93;61.06
25869;BME280;13688;53.154;18.136;2022-09-16T21:12:20;99476.27;;;10.81;61.28
25869;BME280;13688;53.154;18.136;2022-09-16T21:17:46;99478.08;;;10.80;61.34
25869;BME280;13688;53.154;18.136;2022-09-16T21:23:09;99479.12;;;10.52;62.05
25869;BME280;13688;53.154;18.136;2022-09-16T21:28:32;99479.02;;;10.44;62.75
25869;BME280;13688;53.154;18.136;2022-09-16T21:33:55;99469.11;;;10.44;62.58
25869;BME280;13688;53.154;18.136;2022-09-16T21:39:20;99469.84;;;10.37;62.64
25869;BME280;13688;53.154;18.136;2022-09-16T21:44:43;99487.00;;;10.26;63.04
25869;BME280;13688;53.154;18.136;2022-09-16T21:50:07;99482.51;;;10.07;63.81
25869;BME280;13688;53.154;18.136;2022-09-16T21:55:29;99477.32;;;9.96;64.69
25869;BME280;13688;53.154;18.136;2022-09-16T22:00:51;99478.70;;;10.00;64.89
25869;BME280;13688;53.154;18.136;2022-09-16T22:06:30;99474.72;;;10.23;65.16
25869;BME280;13688;53.154;18.136;2022-09-16T22:11:53;99468.47;;;10.13;64.69
25869;BME280;13688;53.154;18.136;2022-09-16T22:17:15;99467.15;;;9.90;65.31
25869;BME280;13688;53.154;18.136;2022-09-16T22:22:38;99467.84;;;9.92;66.01
25869;BME280;13688;53.154;18.136;2022-09-16T22:28:01;99470.89;;;10.16;66.35
25869;BME280;13688;53.154;18.136;2022-09-16T22:33:23;99462.73;;;10.45;65.83
25869;BME280;13688;53.154;18.136;2022-09-16T22:38:47;99459.53;;;10.59;65.25
25869;BME280;13688;53.154;18.136;2022-09-16T22:44:12;99455.34;;;10.75;64.77
25869;BME280;13688;53.154;18.136;2022-09-16T22:49:35;99453.97;;;10.88;64.29
25869;BME280;13688;53.154;18.136;2022-09-16T22:54:57;99454.14;;;11.05;63.86
25869;BME280;13688;53.154;18.136;2022-09-16T23:00:20;99445.92;;;11.24;63.17
25869;BME280;13688;53.154;18.136;2022-09-16T23:05:56;99433.55;;;11.31;62.73
25869;BME280;13688;53.154;18.136;2022-09-16T23:11:23;99436.23;;;11.31;62.90
25869;BME280;13688;53.154;18.136;2022-09-16T23:16:47;99428.69;;;11.35;62.88
25869;BME280;13688;53.154;18.136;2022-09-16T23:22:09;99428.45;;;11.28;63.35
25869;BME280;13688;53.154;18.136;2022-09-16T23:27:31;99424.00;;;11.19;64.18
25869;BME280;13688;53.154;18.136;2022-09-16T23:32:53;99419.86;;;11.07;64.98
25869;BME280;13688;53.154;18.136;2022-09-16T23:38:16;99424.80;;;10.94;66.16
25869;BME280;13688;53.154;18.136;2022-09-16T23:43:39;99416.87;;;10.74;67.59
25869;BME280;13688;53.154;18.136;2022-09-16T23:49:02;99414.30;;;10.55;69.42
25869;BME280;13688;53.154;18.136;2022-09-16T23:54:35;99424.37;;;10.53;70.87
25869;BME280;13688;53.154;18.136;2022-09-16T23:59:57;99421.95;;;10.22;72.32
